Time;durP1;ratioP1;P1;durP2;ratioP2;P2;SDS_P1;SDS_P2;PMS_P1;PMS_P2;Temp;Humidity;BMP_temperature;BMP_pressure;BME280_temperature;BME280_humidity;BME280_pressure;Samples;Min_cycle;Max_cycle;Signal;HPM_P1;HPM_P2
2022/06/14 00:01:28;;;;;;;3.25;0.40;;;;;;;23.33;41.61;99638.72;1670744;84;21130;-69
2022/06/14 00:03:57;;;;;;;1.00;0.70;;;;;;;23.31;41.51;99636.28;1671708;84;21044;-69
2022/06/14 00:06:27;;;;;;;2.92;0.50;;;;;;;23.31;41.52;99632.20;1671340;85;21171;-67
2022/06/14 00:08:53;;;;;;;1.60;0.75;;;;;;;23.32;41.55;99634.39;1671218;85;21616;-70
2022/06/14 00:11:25;;;;;;;0.40;0.40;;;;;;;23.31;41.71;99627.32;1673111;83;21152;-68
2022/06/14 00:13:54;;;;;;;0.90;0.57;;;;;;;23.32;41.76;99631.67;1684509;83;21011;-69
2022/06/14 00:16:22;;;;;;;0.95;0.60;;;;;;;23.32;41.93;99635.75;1682537;83;21010;-71
2022/06/14 00:18:49;;;;;;;1.52;0.72;;;;;;;23.27;42.08;99629.81;1694622;83;21590;-70
2022/06/14 00:21:16;;;;;;;0.95;0.78;;;;;;;23.23;42.30;99626.05;1692048;83;21066;-70
2022/06/14 00:23:44;;;;;;;4.17;0.78;;;;;;;23.20;42.64;99630.70;1679775;83;21592;-68
2022/06/14 00:26:12;;;;;;;0.78;0.60;;;;;;;23.13;42.73;99622.08;1682117;83;21009;-69
2022/06/14 00:28:42;;;;;;;0.50;0.40;;;;;;;23.08;42.77;99627.03;1679999;84;21116;-68
2022/06/14 00:31:14;;;;;;;1.35;0.80;;;;;;;23.05;42.92;99619.45;1683432;84;21017;-69
2022/06/14 00:33:42;;;;;;;0.70;0.50;;;;;;;23.02;43.04;99611.86;1685380;82;21086;-67
2022/06/14 00:36:30;;;;;;;4.25;0.53;;;;;;;23.00;43.30;99615.42;1693402;83;21585;-67
2022/06/14 00:39:06;;;;;;;1.80;0.80;;;;;;;22.96;43.38;99621.14;1689755;83;21002;-68
2022/06/14 00:41:44;;;;;;;0.70;0.60;;;;;;;22.89;43.70;99611.99;1691735;83;21555;-69
2022/06/14 00:44:21;;;;;;;0.95;0.95;;;;;;;22.83;44.09;99615.04;1692638;82;21089;-68
2022/06/14 00:47:08;;;;;;;0.88;0.88;;;;;;;22.78;44.23;99609.12;1668529;84;21527;-68
2022/06/14 00:49:54;;;;;;;1.20;0.72;;;;;;;22.71;44.45;99610.00;1670217;84;21101;-69
2022/06/14 00:52:39;;;;;;;;;;;;;;;22.62;44.55;99613.91;1671336;84;21154;-69
2022/06/14 00:55:21;;;;;;;1.52;1.10;;;;;;;22.56;44.77;99613.67;1674450;82;20115;-70
2022/06/14 00:57:52;;;;;;;1.72;0.82;;;;;;;22.44;45.28;99610.53;1702221;83;21022;-70
2022/06/14 01:00:23;;;;;;;2.42;1.07;;;;;;;22.40;45.56;99608.13;1713686;81;21069;-68
2022/06/14 01:02:57;;;;;;;3.98;1.15;;;;;;;22.37;45.61;99607.33;1749767;81;21032;-69
2022/06/14 01:06:38;;;;;;;2.52;1.30;;;;;;;22.37;45.60;99608.13;1745850;81;21137;-67
2022/06/14 01:08:14;;;;;;;2.85;1.62;;;;;;;22.39;45.73;99602.42;1689522;81;21090;-66
2022/06/14 01:10:43;;;;;;;1.70;1.30;;;;;;;22.37;45.94;99600.55;1748444;81;21060;-68
2022/06/14 01:13:10;;;;;;;0.65;0.65;;;;;;;22.34;46.27;99603.30;1750265;81;21099;-68
2022/06/14 01:15:36;;;;;;;1.27;1.17;;;;;;;22.29;46.52;99601.97;1750611;81;21084;-68
2022/06/14 01:18:08;;;;;;;0.72;0.70;;;;;;;22.23;46.66;99601.17;1744270;81;21042;-69
2022/06/14 01:20:37;;;;;;;5.10;1.85;;;;;;;22.19;46.73;99596.05;1724355;81;21173;-70
2022/06/14 01:23:08;;;;;;;1.95;1.82;;;;;;;22.15;46.84;99598.52;1747677;81;21022;-67
2022/06/14 01:25:40;;;;;;;4.87;2.02;;;;;;;22.11;47.28;99590.69;1723081;82;21086;-68
2022/06/14 01:28:10;;;;;;;2.40;1.98;;;;;;;22.09;47.30;99590.69;1750420;81;21094;-68
2022/06/14 01:30:45;;;;;;;1.80;1.70;;;;;;;22.04;47.53;99590.71;1751541;81;21459;-69
2022/06/14 01:33:19;;;;;;;2.85;2.60;;;;;;;22.02;47.97;99593.73;1713521;82;21667;-67
2022/06/14 01:35:53;;;;;;;2.37;2.17;;;;;;;22.01;47.83;99592.66;1711279;82;21929;-67
2022/06/14 01:38:19;;;;;;;2.37;2.10;;;;;;;21.97;48.17;99591.84;1714579;82;21094;-68
2022/06/14 01:41:17;;;;;;;4.83;1.57;;;;;;;21.91;48.15;99595.70;1703194;82;21011;-68
2022/06/14 01:43:58;;;;;;;3.83;1.70;;;;;;;21.87;48.72;99596.52;1670427;84;21672;-68
2022/06/14 01:46:31;;;;;;;2.35;2.22;;;;;;;21.83;48.87;99595.47;1684703;84;21031;-69
2022/06/14 01:52:40;;;;;;;2.10;2.00;;;;;;;21.82;49.16;99590.60;1698003;84;21077;-68
2022/06/14 01:55:30;;;;;;;2.85;2.62;;;;;;;21.80;49.18;99584.65;1689293;84;21133;-68
2022/06/14 01:58:21;;;;;;;3.12;2.60;;;;;;;21.79;49.42;99585.73;1654648;85;21174;-69
2022/06/14 02:01:08;;;;;;;3.80;2.25;;;;;;;21.74;49.48;99589.30;1646589;84;21519;-68
2022/06/14 02:06:40;;;;;;;2.42;2.27;;;;;;;21.71;49.76;99583.06;1702182;83;21112;-68
2022/06/14 02:09:15;;;;;;;4.30;2.30;;;;;;;21.69;50.04;99579.83;1682662;85;21480;-69
2022/06/14 02:11:42;;;;;;;3.52;2.33;;;;;;;21.66;50.81;99579.05;1670208;85;21080;-70
2022/06/14 02:14:26;;;;;;;2.77;2.55;;;;;;;21.68;50.99;99576.03;1654079;85;21055;-67
2022/06/14 02:17:07;;;;;;;7.25;2.50;;;;;;;21.69;51.16;99574.95;1699675;83;21055;-68
2022/06/14 02:19:47;;;;;;;3.02;2.83;;;;;;;21.73;51.27;99571.94;1713210;82;21053;-68
2022/06/14 02:22:20;;;;;;;3.95;2.35;;;;;;;21.76;51.70;99579.53;1704619;83;21169;-69
2022/06/14 02:24:55;;;;;;;2.90;2.70;;;;;;;21.78;51.77;99571.91;1674677;84;21085;-69
2022/06/14 02:27:33;;;;;;;3.35;3.05;;;;;;;21.89;51.67;99575.38;1683252;84;21128;-69
2022/06/14 02:30:12;;;;;;;5.15;2.22;;;;;;;22.07;51.42;99575.23;1697451;83;20975;-68
2022/06/14 03:02:18;;;;;;;1.80;1.67;;;;;;;23.32;47.42;99565.86;1663978;85;20988;-69
2022/06/14 03:05:32;;;;;;;2.80;1.95;;;;;;;24.14;45.21;99550.82;1696645;83;21599;-68
2022/06/14 03:08:17;;;;;;;1.90;1.77;;;;;;;24.46;44.42;99559.52;1696549;83;21096;-69
2022/06/14 03:11:14;;;;;;;1.75;1.65;;;;;;;24.88;43.51;99549.48;1697715;83;21066;-69
2022/06/14 03:37:25;;;;;;;3.42;3.20;;;;;;;27.42;37.64;99530.96;1712390;82;21081;-70
2022/06/14 03:39:56;;;;;;;1.85;1.10;;;;;;;27.83;36.30;99531.62;1712209;82;21048;-69
2022/06/14 03:42:25;;;;;;;4.05;2.58;;;;;;;27.92;35.98;99525.03;1713397;82;20989;-69
2022/06/14 03:44:52;;;;;;;1.70;1.60;;;;;;;28.07;36.27;99542.09;1713404;81;21794;-67
2022/06/14 03:47:23;;;;;;;4.12;1.40;;;;;;;28.29;35.39;99575.31;1711700;82;22458;-66
2022/06/14 03:50:14;;;;;;;1.47;1.37;;;;;;;28.61;35.24;99574.54;1713074;82;21074;-69
2022/06/14 03:53:28;;;;;;;0.60;0.53;;;;;;;29.10;34.28;99579.08;1709396;82;21083;-68
2022/06/14 03:56:13;;;;;;;1.27;0.90;;;;;;;29.47;33.41;99586.25;1709994;82;21013;-67
2022/06/14 03:59:17;;;;;;;1.72;1.20;;;;;;;29.68;33.09;99582.92;1703280;82;21088;-68
2022/06/14 04:01:51;;;;;;;2.92;1.60;;;;;;;29.79;32.61;99588.06;1706945;82;21083;-68
2022/06/14 04:04:32;;;;;;;3.35;1.10;;;;;;;29.68;32.44;99591.16;1681393;82;21406;-67
2022/06/14 04:07:16;;;;;;;11.12;1.27;;;;;;;29.59;32.38;99593.74;1705506;82;21108;-67
2022/06/14 04:09:54;;;;;;;5.78;1.12;;;;;;;29.53;32.59;99594.51;1708137;82;21041;-68
2022/06/14 04:12:44;;;;;;;3.60;1.80;;;;;;;29.36;32.88;99602.87;1658236;82;21047;-69
2022/06/14 04:15:36;;;;;;;9.45;6.25;;;;;;;29.18;33.20;99607.64;1680309;83;21113;-70
2022/06/14 04:18:36;;;;;;;3.87;2.92;;;;;;;28.95;33.72;99609.81;1674771;83;21153;-69
2022/06/14 04:21:22;;;;;;;4.28;3.80;;;;;;;28.68;34.17;99616.77;1675046;83;21042;-72
2022/06/14 04:24:18;;;;;;;3.70;3.12;;;;;;;28.74;34.63;99626.99;1607578;84;21077;-68
2022/06/14 04:27:02;;;;;;;7.72;4.42;;;;;;;28.92;34.24;99642.27;1666044;84;21108;-67
2022/06/14 04:29:46;;;;;;;6.37;5.25;;;;;;;28.91;34.55;99642.58;1666390;84;21604;-67
2022/06/14 04:32:36;;;;;;;11.65;7.55;;;;;;;28.53;35.14;99637.86;1637224;86;21557;-69
2022/06/14 04:35:08;;;;;;;5.42;5.00;;;;;;;28.14;35.95;99647.86;1621681;86;21069;-69
2022/06/14 04:37:43;;;;;;;12.28;11.20;;;;;;;27.53;36.90;99663.63;1622813;86;21045;-72
2022/06/14 04:40:15;;;;;;;8.30;4.72;;;;;;;27.00;38.10;99665.91;1645907;84;21045;-75
2022/06/14 04:42:53;;;;;;;6.58;4.80;;;;;;;26.70;38.66;99675.72;1676041;84;21068;-79
2022/06/14 04:45:32;;;;;;;7.37;4.62;;;;;;;26.65;39.21;99673.91;1684050;83;21100;-76
2022/06/14 04:48:10;;;;;;;4.47;3.27;;;;;;;26.73;39.27;99686.02;1690577;83;22298;-79
2022/06/14 04:50:45;;;;;;;3.42;2.95;;;;;;;26.47;39.85;99696.20;1687151;83;21609;-81
2022/06/14 04:53:26;;;;;;;4.05;2.15;;;;;;;26.01;40.81;99707.62;1685447;83;21528;-75
2022/06/14 04:56:11;;;;;;;3.30;2.65;;;;;;;25.72;41.76;99709.30;1693385;81;21625;-75
2022/06/14 04:58:53;;;;;;;4.05;2.67;;;;;;;25.34;42.98;99714.97;1663044;85;21854;-81
2022/06/14 05:01:27;;;;;;;10.63;2.67;;;;;;;25.10;43.54;99703.40;1690320;83;21024;-72
2022/06/14 05:04:02;;;;;;;0.93;0.88;;;;;;;24.76;44.41;99718.16;1687745;83;21193;-62
2022/06/14 05:06:41;;;;;;;8.25;3.70;;;;;;;24.35;45.52;99725.02;1692622;83;21479;-71
2022/06/14 05:09:21;;;;;;;2.90;1.70;;;;;;;23.89;46.64;99735.98;1652550;85;21175;-73
2022/06/14 05:11:56;;;;;;;3.83;1.47;;;;;;;23.50;47.77;99719.27;1624895;85;21050;-84
2022/06/14 05:14:50;;;;;;;2.60;1.10;;;;;;;22.96;49.04;99743.99;1667126;85;21522;-76
2022/06/14 05:17:28;;;;;;;8.03;6.65;;;;;;;22.42;50.45;99760.16;1710588;83;21054;-73
2022/06/14 05:20:27;;;;;;;3.27;2.20;;;;;;;21.99;51.99;99756.28;1704106;82;21529;-79
2022/06/14 05:23:18;;;;;;;1.20;1.12;;;;;;;21.77;53.01;99761.51;1710429;82;21104;-85
2022/06/14 05:26:02;;;;;;;0.78;0.72;;;;;;;21.39;54.30;99770.53;1696862;82;21177;-75
2022/06/14 05:28:39;;;;;;;1.10;1.10;;;;;;;20.98;55.65;99791.72;1670029;84;21065;-76
2022/06/14 05:31:14;;;;;;;3.90;1.65;;;;;;;20.74;56.22;99784.66;1653975;84;21114;-76
2022/06/14 05:34:04;;;;;;;1.27;1.17;;;;;;;20.59;57.31;99783.25;1659820;85;21081;-76
2022/06/14 05:36:39;;;;;;;5.60;0.70;;;;;;;20.47;57.89;99803.78;1697550;83;21055;-76
2022/06/14 05:39:18;;;;;;;1.57;0.88;;;;;;;20.34;58.48;99800.22;1700922;83;21073;-79
2022/06/14 05:41:50;;;;;;;2.52;0.82;;;;;;;20.29;58.55;99817.27;1685761;84;21053;-71
2022/06/14 05:44:31;;;;;;;0.62;0.60;;;;;;;20.28;58.65;99793.98;1691781;81;21080;-71
2022/06/14 05:47:03;;;;;;;2.27;0.75;;;;;;;20.32;58.94;99812.66;1714467;83;21216;-69
2022/06/14 05:49:34;;;;;;;1.32;0.55;;;;;;;20.31;59.14;99811.60;1710518;83;21035;-81
2022/06/14 05:52:19;;;;;;;2.05;1.95;;;;;;;20.20;59.56;99814.80;1697338;83;21054;-76
2022/06/14 05:55:01;;;;;;;1.82;1.50;;;;;;;20.09;59.69;99811.78;1713986;84;21051;-77
2022/06/14 05:57:58;;;;;;;6.83;1.92;;;;;;;20.07;60.19;99817.45;1701118;83;21556;-78
2022/06/14 06:00:31;;;;;;;4.80;0.80;;;;;;;20.00;60.29;99822.28;1713221;82;21232;-77
2022/06/14 06:03:19;;;;;;;1.42;1.30;;;;;;;19.93;60.99;99818.48;1708878;82;21077;-77
2022/06/14 06:05:51;;;;;;;1.85;1.20;;;;;;;19.87;61.21;99830.33;1616499;83;21165;-78
2022/06/14 06:08:38;;;;;;;2.33;1.15;;;;;;;19.84;61.30;99838.98;1710960;82;21164;-76
2022/06/14 06:11:20;;;;;;;2.60;1.25;;;;;;;19.84;61.27;99856.02;1711622;81;21488;-71
2022/06/14 06:14:09;;;;;;;3.22;0.60;;;;;;;19.79;61.17;99864.63;1736589;81;21077;-82
2022/06/14 06:17:45;;;;;;;0.57;0.47;;;;;;;19.86;60.86;99865.77;1688122;85;21055;-85
2022/06/14 06:19:50;;;;;;;0.40;0.40;;;;;;;19.97;60.71;99869.61;1714714;81;21047;-77
2022/06/14 06:22:38;;;;;;;0.13;0.10;;;;;;;20.19;59.16;99880.29;1733335;81;21097;-75
2022/06/14 06:25:14;;;;;;;0.15;0.10;;;;;;;20.24;58.63;99871.37;1732959;81;21050;-77
2022/06/14 06:27:44;;;;;;;;;;;;;;;20.14;58.31;99872.14;1747845;82;21057;-77
2022/06/14 06:30:17;;;;;;;0.42;0.17;;;;;;;19.97;58.19;99880.44;1745962;82;20222;-76
2022/06/14 06:32:45;;;;;;;0.82;0.20;;;;;;;19.85;58.44;99860.88;1744197;82;21070;-77
2022/06/14 06:35:13;;;;;;;2.20;0.68;;;;;;;19.82;58.87;99876.29;1734764;82;21124;-76
2022/06/14 06:37:54;;;;;;;0.50;0.10;;;;;;;19.78;59.82;99881.41;1747810;82;21030;-78
2022/06/14 06:40:24;;;;;;;3.33;0.20;;;;;;;19.78;59.87;99906.28;1745235;82;21061;-77
2022/06/14 06:43:11;;;;;;;1.27;0.10;;;;;;;19.70;62.82;99914.83;1741547;81;21103;-78
2022/06/14 06:45:43;;;;;;;2.37;0.60;;;;;;;19.57;63.15;99912.02;1743898;81;21049;-80
2022/06/14 06:48:24;;;;;;;0.47;0.35;;;;;;;19.37;64.26;99910.79;1743238;81;21056;-78
2022/06/14 06:51:02;;;;;;;0.93;0.15;;;;;;;19.28;65.50;99923.67;1738881;81;21170;-80
2022/06/14 06:53:41;;;;;;;0.70;0.10;;;;;;;19.13;66.46;99957.56;1745416;82;21564;-82
2022/06/14 06:56:27;;;;;;;0.78;0.20;;;;;;;18.86;68.79;99984.55;1723660;82;21669;-82
2022/06/14 06:59:21;;;;;;;2.77;1.10;;;;;;;18.46;69.47;99962.16;1703529;83;21017;-81
2022/06/14 07:01:49;;;;;;;3.40;0.53;;;;;;;17.96;73.96;99955.50;1713415;82;21021;-79
2022/06/14 07:07:25;;;;;;;0.30;0.30;;;;;;;17.37;78.66;99963.41;1735379;81;21104;-82
2022/06/14 07:10:12;;;;;;;0.50;0.33;;;;;;;17.20;79.74;99968.76;1722530;82;21045;-84
2022/06/14 07:12:44;;;;;;;;;;;;;;;17.08;80.70;99963.94;1723709;82;20989;-82
2022/06/14 07:15:28;;;;;;;1.70;0.45;;;;;;;17.02;81.82;99960.33;1732900;82;20179;-81
2022/06/14 07:18:25;;;;;;;0.40;0.40;;;;;;;16.91;82.75;99951.26;1722454;82;21029;-83
2022/06/14 07:21:11;;;;;;;0.30;0.30;;;;;;;16.91;82.75;99951.26;1718182;82;21640;-83
2022/06/14 07:23:46;;;;;;;0.30;0.30;;;;;;;16.87;82.25;99974.30;1717098;82;21160;-80
2022/06/14 07:26:32;;;;;;;0.60;0.53;;;;;;;16.93;81.80;99984.64;1707842;83;21030;-81
2022/06/14 07:29:28;;;;;;;0.68;0.30;;;;;;;17.03;81.23;99985.41;1704950;83;21047;-83
2022/06/14 07:32:10;;;;;;;2.30;0.33;;;;;;;17.20;80.69;99988.95;1704357;83;21097;-82
2022/06/14 07:34:36;;;;;;;0.40;0.30;;;;;;;17.38;78.92;99989.27;1715445;82;22600;-81
2022/06/14 07:37:33;;;;;;;0.30;0.20;;;;;;;17.55;78.57;99993.34;1724578;82;21052;-82
2022/06/14 07:40:08;;;;;;;0.35;0.20;;;;;;;17.66;78.31;99988.42;1721111;82;21049;-82
2022/06/14 07:42:43;;;;;;;0.20;0.20;;;;;;;17.82;77.56;100000.80;1723333;82;21219;-83
2022/06/14 07:45:21;;;;;;;1.02;0.30;;;;;;;17.94;76.73;100005.63;1684926;82;21557;-82
2022/06/14 07:47:53;;;;;;;3.60;0.72;;;;;;;17.99;76.92;100019.70;1721717;82;21065;-82
2022/06/14 07:50:43;;;;;;;0.72;0.20;;;;;;;17.99;76.19;100017.02;1731084;82;21019;-80
2022/06/14 07:53:29;;;;;;;1.95;1.15;;;;;;;17.99;73.91;100023.25;1718394;82;21566;-82
2022/06/14 07:56:12;;;;;;;2.20;0.60;;;;;;;17.92;74.90;100020.42;1715273;82;21048;-80
2022/06/14 07:59:03;;;;;;;1.67;0.75;;;;;;;17.88;75.26;100028.98;1693696;83;21966;-82
2022/06/14 08:01:50;;;;;;;2.98;0.72;;;;;;;17.94;75.02;100025.04;1694835;83;21058;-85
2022/06/14 08:04:24;;;;;;;0.87;0.20;;;;;;;18.01;71.89;100029.20;1693017;84;21086;-83
2022/06/14 08:07:15;;;;;;;0.85;0.30;;;;;;;18.04;72.03;100034.09;1687794;84;21368;-81
2022/06/14 08:09:53;;;;;;;0.47;0.20;;;;;;;18.07;70.46;100030.91;1691981;84;21010;-79
2022/06/14 08:12:26;;;;;;;1.42;0.20;;;;;;;18.04;70.32;100028.70;1696238;83;21030;-82
2022/06/14 08:15:28;;;;;;;0.25;0.23;;;;;;;18.05;70.50;100024.14;1693870;83;21041;-84
2022/06/14 08:18:21;;;;;;;0.30;0.17;;;;;;;18.15;69.36;100036.43;1696932;83;21130;-83
2022/06/14 08:22:31;;;;;;;0.47;0.20;;;;;;;18.49;67.30;100030.45;1796815;78;22931;-84
2022/06/14 08:25:03;;;;;;;1.25;0.20;;;;;;;18.57;66.81;100042.73;1692218;82;21106;-84
2022/06/14 08:27:40;;;;;;;0.20;0.10;;;;;;;18.72;65.46;100038.06;1704699;82;21010;-83
2022/06/14 08:30:13;;;;;;;0.82;0.20;;;;;;;18.83;63.98;100027.70;1704939;82;21056;-82
2022/06/14 08:33:15;;;;;;;0.30;0.10;;;;;;;19.00;63.23;100028.99;1692005;82;21120;-83
2022/06/14 08:35:49;;;;;;;2.30;0.10;;;;;;;19.24;62.76;100028.74;1702272;84;21053;-82
2022/06/14 08:38:29;;;;;;;0.93;0.10;;;;;;;19.49;61.11;100036.30;1694474;82;21044;-84
2022/06/14 08:41:36;;;;;;;0.60;0.45;;;;;;;19.61;59.33;100034.27;1697699;82;21154;-83
2022/06/14 08:44:25;;;;;;;0.75;0.10;;;;;;;19.69;57.18;100027.58;1694082;82;21084;-82
2022/06/14 08:47:10;;;;;;;1.00;0.10;;;;;;;19.81;56.23;100039.61;1699987;82;21110;-81
2022/06/14 08:49:57;;;;;;;0.57;0.20;;;;;;;19.89;54.94;100048.62;1694725;84;21072;-86
2022/06/14 08:52:35;;;;;;;0.20;0.13;;;;;;;19.96;54.91;100052.45;1697561;84;21119;-83
2022/06/14 08:55:10;;;;;;;0.20;0.10;;;;;;;20.09;54.76;100062.03;1698886;84;21476;-78
2022/06/14 08:57:48;;;;;;;0.85;0.10;;;;;;;20.24;54.52;100060.80;1695398;82;21393;-81
2022/06/14 09:00:50;;;;;;;1.57;0.10;;;;;;;20.27;54.56;100064.86;1687917;84;21049;-83
2022/06/14 09:03:37;;;;;;;0.33;0.20;;;;;;;20.26;53.95;100057.30;1683389;84;21566;-81
2022/06/14 09:06:43;;;;;;;0.45;0.10;;;;;;;20.27;52.60;100071.12;1630697;86;21133;-79
2022/06/14 09:09:23;;;;;;;1.30;0.10;;;;;;;20.28;53.38;100056.49;1679386;83;21081;-77
2022/06/14 09:12:25;;;;;;;0.13;0.10;;;;;;;20.23;54.18;100057.28;1691851;83;21069;-80
2022/06/14 09:15:22;;;;;;;1.57;0.10;;;;;;;20.29;54.09;100059.48;1695268;83;21077;-79
2022/06/14 09:18:39;;;;;;;1.22;0.10;;;;;;;20.38;53.51;100067.41;1661819;85;21556;-77
2022/06/14 09:21:32;;;;;;;1.42;0.10;;;;;;;20.42;53.67;100059.05;1687745;83;21120;-80
2022/06/14 09:24:33;;;;;;;0.45;0.20;;;;;;;20.40;51.94;100072.56;1688440;81;21021;-82
2022/06/14 09:27:42;;;;;;;3.85;0.35;;;;;;;20.37;51.86;100066.31;1699435;83;21206;-83
2022/06/14 09:30:14;;;;;;;0.55;0.20;;;;;;;20.41;50.71;100069.58;1707443;83;21037;-83
2022/06/14 09:33:09;;;;;;;0.13;0.10;;;;;;;20.41;51.06;100072.83;1698411;83;21525;-78
2022/06/14 09:36:18;;;;;;;0.28;0.25;;;;;;;20.46;51.48;100077.48;1702234;83;21144;-82
2022/06/14 09:39:20;;;;;;;;;;;;;;;20.46;51.35;100079.64;1706951;83;21033;-81
2022/06/14 09:42:01;;;;;;;0.50;0.20;;;;;;;20.48;51.50;100077.48;1696345;83;20172;-83
2022/06/14 09:44:58;;;;;;;1.98;0.53;;;;;;;20.46;51.48;100086.95;1699029;81;21084;-80
2022/06/14 09:48:04;;;;;;;3.50;0.28;;;;;;;20.54;51.14;100081.05;1681152;84;21033;-82
2022/06/14 09:50:56;;;;;;;1.25;0.23;;;;;;;20.51;50.23;100085.09;1696416;83;21075;-80
2022/06/14 09:54:21;;;;;;;0.20;0.10;;;;;;;20.55;49.31;100085.37;1696195;83;21041;-82
2022/06/14 09:57:02;;;;;;;0.72;0.30;;;;;;;20.57;49.12;100079.18;1697498;82;21181;-83
2022/06/14 10:00:01;;;;;;;1.45;0.10;;;;;;;20.54;48.50;100094.58;1685209;83;21047;-84
2022/06/14 10:02:49;;;;;;;0.70;0.20;;;;;;;20.55;49.94;100092.13;1689293;83;21139;-82
2022/06/14 10:05:43;;;;;;;0.85;0.17;;;;;;;20.64;49.51;100086.55;1695101;83;21559;-81
2022/06/14 10:08:37;;;;;;;0.50;0.23;;;;;;;20.74;47.73;100079.85;1693738;83;22359;-77
2022/06/14 10:11:29;;;;;;;0.85;0.20;;;;;;;20.82;47.13;100087.21;1685603;83;21099;-80
2022/06/14 10:14:29;;;;;;;0.40;0.30;;;;;;;20.83;47.87;100092.34;1705803;82;21202;-82
2022/06/14 10:17:25;;;;;;;0.53;0.20;;;;;;;20.60;47.34;100067.84;1708481;82;21590;-82
2022/06/14 10:20:06;;;;;;;1.05;0.10;;;;;;;20.68;46.03;100087.67;1702454;82;21134;-81
2022/06/14 10:22:50;;;;;;;1.22;0.10;;;;;;;20.51;47.14;100097.28;1708025;83;20981;-78
2022/06/14 10:28:11;;;;;;;0.90;0.20;;;;;;;20.42;46.27;100085.30;1703865;82;21049;-82
2022/06/14 10:28:14;;;;;;;2.92;0.20;;;;;;;20.34;46.45;100092.02;1701733;82;21136;-80
2022/06/14 10:31:03;;;;;;;1.85;0.10;;;;;;;20.34;46.94;100093.88;1727879;82;21073;-84
2022/06/14 10:33:50;;;;;;;1.30;0.23;;;;;;;20.41;47.29;100091.23;1710059;82;21522;-84
2022/06/14 10:36:28;;;;;;;1.17;0.93;;;;;;;20.54;47.46;100083.75;1686639;83;21100;-83
2022/06/14 10:39:25;;;;;;;1.05;0.20;;;;;;;20.32;47.56;100037.84;1646147;86;21418;-85
2022/06/14 10:42:20;;;;;;;0.62;0.10;;;;;;;20.61;47.84;100083.02;1697045;84;21073;-79
2022/06/14 10:44:57;;;;;;;1.45;0.15;;;;;;;20.57;47.44;100085.95;1697603;83;21034;-84
2022/06/14 10:47:45;;;;;;;0.30;0.20;;;;;;;20.57;47.91;100090.81;1717321;82;21037;-80
2022/06/14 10:50:52;;;;;;;1.90;0.30;;;;;;;20.60;47.47;100085.44;1711609;82;20962;-84
2022/06/14 10:53:45;;;;;;;0.33;0.20;;;;;;;20.61;47.72;100077.06;1716276;83;21150;-83
2022/06/14 10:56:34;;;;;;;0.42;0.30;;;;;;;20.63;47.02;100078.16;1671039;83;21573;-83
2022/06/14 10:59:17;;;;;;;1.40;0.20;;;;;;;20.61;46.78;100070.84;1673468;83;21069;-84
2022/06/14 11:01:59;;;;;;;3.80;0.30;;;;;;;20.59;46.84;100071.61;1675263;83;21066;-81
2022/06/14 11:04:45;;;;;;;0.90;0.30;;;;;;;20.57;46.37;100067.00;1685155;83;20995;-82
2022/06/14 11:07:32;;;;;;;1.15;0.85;;;;;;;20.59;46.79;100066.19;1678467;83;21049;-83
2022/06/14 11:10:19;;;;;;;0.75;0.30;;;;;;;20.68;46.69;100060.59;1692138;83;21518;-82
2022/06/14 11:13:21;;;;;;;0.60;0.30;;;;;;;20.78;46.26;100057.93;1680853;83;21232;-83
2022/06/14 11:16:24;;;;;;;1.92;0.20;;;;;;;20.87;46.07;100058.25;1668622;83;21585;-77
2022/06/14 11:19:28;;;;;;;2.75;0.30;;;;;;;20.97;46.40;100054.23;1686662;83;20995;-84
2022/06/14 11:21:59;;;;;;;1.25;0.37;;;;;;;21.11;46.80;100059.96;1678223;83;21276;-82
2022/06/14 11:24:55;;;;;;;0.95;0.30;;;;;;;21.12;44.70;100046.70;1628349;84;21568;-83
2022/06/14 11:27:51;;;;;;;0.68;0.30;;;;;;;21.25;44.83;100047.27;1669993;85;21060;-82
2022/06/14 11:30:38;;;;;;;0.60;0.20;;;;;;;21.30;45.27;100052.72;1668818;84;21594;-82
2022/06/14 11:33:45;;;;;;;1.65;0.30;;;;;;;21.34;44.87;100058.71;1655677;84;21031;-81
2022/06/14 11:36:44;;;;;;;0.60;0.33;;;;;;;21.34;45.20;100050.58;1681559;84;21062;-83
2022/06/14 11:39:34;;;;;;;1.82;0.40;;;;;;;21.44;44.53;100045.75;1651839;85;21069;-83
2022/06/14 11:42:05;;;;;;;3.02;0.30;;;;;;;21.40;41.72;100036.49;1657007;85;21005;-84
2022/06/14 11:44:58;;;;;;;2.25;0.55;;;;;;;21.31;42.21;100053.81;1643778;84;21066;-82
2022/06/14 11:47:56;;;;;;;0.55;0.30;;;;;;;21.30;42.27;100039.16;1626963;84;21658;-82
2022/06/14 11:50:49;;;;;;;1.25;0.42;;;;;;;21.31;41.34;100040.80;1671292;85;21042;-84
2022/06/14 11:53:27;;;;;;;0.85;0.30;;;;;;;21.33;41.98;100035.93;1667728;85;21065;-82
2022/06/14 11:56:03;;;;;;;1.95;0.60;;;;;;;21.44;42.23;100034.06;1676454;83;21076;-84
2022/06/14 11:58:44;;;;;;;2.50;0.78;;;;;;;21.57;41.36;100030.86;1687484;83;21525;-84
2022/06/14 12:01:34;;;;;;;1.35;0.30;;;;;;;21.65;40.02;100037.10;1646426;85;21119;-83
2022/06/14 12:04:13;;;;;;;1.00;0.50;;;;;;;21.67;40.12;100041.72;1630797;86;21607;-83
2022/06/14 12:07:00;;;;;;;1.90;0.50;;;;;;;21.67;40.15;100043.63;1674336;83;21526;-83
2022/06/14 12:09:59;;;;;;;3.02;0.78;;;;;;;21.64;39.83;100040.88;1672653;84;21086;-81
2022/06/14 12:12:52;;;;;;;1.27;0.40;;;;;;;21.70;39.10;100043.90;1670578;84;21051;-82
2022/06/14 12:15:49;;;;;;;1.05;0.50;;;;;;;21.77;38.36;100038.20;1660150;84;21611;-82
2022/06/14 12:18:19;;;;;;;0.60;0.60;;;;;;;21.86;38.06;100039.84;1670861;84;21044;-83
2022/06/14 12:21:08;;;;;;;0.93;0.93;;;;;;;21.85;38.48;100033.61;1662025;84;21074;-83
2022/06/14 12:23:42;;;;;;;0.70;0.70;;;;;;;21.87;38.58;100036.02;1672704;84;21119;-83
2022/06/14 12:26:42;;;;;;;4.80;0.45;;;;;;;21.93;38.63;100024.11;1670970;84;21091;-83
2022/06/14 12:29:23;;;;;;;2.37;0.30;;;;;;;21.95;38.12;100033.59;1655007;85;21210;-83
2022/06/14 12:32:20;;;;;;;0.42;0.20;;;;;;;22.03;37.65;100024.09;1672252;84;21101;-83
2022/06/14 12:35:00;;;;;;;0.30;0.30;;;;;;;22.09;38.06;100033.05;1642023;84;21031;-82
2022/06/14 12:37:52;;;;;;;1.42;0.30;;;;;;;22.11;37.91;100034.94;1649020;85;21482;-84
2022/06/14 12:40:34;;;;;;;0.60;0.30;;;;;;;22.11;37.45;100037.66;1670722;84;21158;-85
2022/06/14 12:43:26;;;;;;;0.40;0.40;;;;;;;22.04;37.87;100044.73;1665219;84;21211;-86
2022/06/14 12:46:05;;;;;;;0.53;0.33;;;;;;;21.99;38.36;100051.51;1654900;83;21142;-83
2022/06/14 12:48:51;;;;;;;0.70;0.40;;;;;;;21.88;38.69;100064.80;1669708;84;21045;-83
2022/06/14 12:51:28;;;;;;;0.20;0.20;;;;;;;21.82;39.21;100063.17;1676626;84;21254;-83
2022/06/14 12:54:03;;;;;;;0.47;0.47;;;;;;;21.76;39.35;100055.57;1669686;84;21101;-82
2022/06/14 12:56:51;;;;;;;1.00;0.40;;;;;;;21.73;39.09;100062.88;1687396;83;21061;-82
2022/06/14 12:59:48;;;;;;;0.45;0.40;;;;;;;21.66;38.83;100059.61;1688864;83;21562;-83
2022/06/14 13:03:02;;;;;;;1.60;0.30;;;;;;;21.61;39.48;100059.62;1690692;83;21062;-84
2022/06/14 13:05:37;;;;;;;2.15;0.42;;;;;;;21.65;39.89;100053.92;1696112;83;21067;-84
2022/06/14 13:08:23;;;;;;;0.20;0.10;;;;;;;21.70;39.78;100055.27;1696323;83;21038;-81
2022/06/14 13:11:34;;;;;;;0.75;0.40;;;;;;;21.77;39.96;100055.30;1693363;83;21050;-84
2022/06/14 13:14:17;;;;;;;4.75;0.57;;;;;;;21.86;39.38;100053.41;1693602;83;21159;-83
2022/06/14 13:17:13;;;;;;;5.80;0.45;;;;;;;21.85;39.28;100048.53;1690857;83;21153;-83
2022/06/14 13:19:59;;;;;;;0.60;0.60;;;;;;;21.81;39.29;100050.13;1689812;83;21058;-81
2022/06/14 13:22:50;;;;;;;1.27;0.70;;;;;;;21.73;39.01;100058.26;1693078;83;20971;-82
2022/06/14 13:25:40;;;;;;;0.53;0.53;;;;;;;21.64;38.57;100052.28;1691528;83;21068;-84
2022/06/14 13:28:20;;;;;;;4.15;0.95;;;;;;;21.63;37.84;100043.89;1634384;83;21018;-84
2022/06/14 13:31:08;;;;;;;3.95;0.55;;;;;;;21.63;38.18;100053.39;1661933;83;21188;-80
2022/06/14 13:34:22;;;;;;;1.47;0.65;;;;;;;21.69;37.54;100046.87;1691792;83;21671;-85
2022/06/14 13:37:22;;;;;;;0.68;0.40;;;;;;;21.72;37.36;100051.22;1700437;83;21061;-82
2022/06/14 13:40:17;;;;;;;1.67;0.68;;;;;;;21.82;38.14;100035.49;1642186;87;21027;-82
2022/06/14 13:43:01;;;;;;;2.47;0.40;;;;;;;21.79;38.33;100046.87;1627704;87;21108;-83
2022/06/14 13:45:55;;;;;;;3.45;0.42;;;;;;;21.79;39.32;100045.52;1675039;82;21022;-86
2022/06/14 13:48:30;;;;;;;2.62;0.65;;;;;;;21.82;37.15;100041.47;1691485;83;21696;-83
2022/06/14 13:51:09;;;;;;;1.57;0.60;;;;;;;21.74;36.91;100049.60;1696644;83;21208;-83